createdAt,value
2022-09-17T00:02:47.175Z,96525.06
2022-09-17T00:05:33.969Z,96519.94
2022-09-17T00:08:20.711Z,96529.97
2022-09-17T00:11:08.437Z,96526.06
2022-09-17T00:13:55.423Z,96523.59
2022-09-17T00:16:43.652Z,96518.50
2022-09-17T00:19:30.305Z,96520.53
2022-09-17T00:22:17.027Z,96519.09
2022-09-17T00:25:04.218Z,96517.66
2022-09-17T00:27:50.944Z,96516.22
2022-09-17T00:30:44.205Z,96513.78
2022-09-17T00:33:30.872Z,96516.84
2022-09-17T00:39:04.674Z,96527.06
2022-09-17T00:41:51.562Z,96530.94
2022-09-17T00:44:55.010Z,96527.84
2022-09-17T00:47:46.625Z,96538.69
2022-09-17T00:50:40.530Z,96540.72
2022-09-17T00:53:28.357Z,96541.16
2022-09-17T00:56:20.061Z,96548.50
2022-09-17T00:59:06.692Z,96543.38
2022-09-17T01:01:53.461Z,96545.22
2022-09-17T01:04:40.127Z,96543.56
2022-09-17T01:07:42.720Z,96537.84
2022-09-17T01:10:43.895Z,96534.75
2022-09-17T01:13:42.574Z,96545.59
2022-09-17T01:16:45.770Z,96543.13
2022-09-17T01:19:32.436Z,96552.13
2022-09-17T01:22:37.891Z,96549.88
2022-09-17T01:25:45.459Z,96554.56
2022-09-17T01:28:42.856Z,96562.72
2022-09-17T01:31:29.816Z,96557.41
2022-09-17T01:34:24.588Z,96562.13
2022-09-17T01:37:11.292Z,96558.84
2022-09-17T01:40:02.696Z,96562.66
2022-09-17T01:42:51.012Z,96564.72
2022-09-17T01:45:49.778Z,96565.75
2022-09-17T01:48:38.703Z,96568.59
2022-09-17T01:51:29.313Z,96571.47
2022-09-17T01:54:26.280Z,96557.53
2022-09-17T01:57:14.799Z,96557.53
2022-09-17T02:00:03.718Z,96556.50
2022-09-17T02:02:50.393Z,96552.03
2022-09-17T02:05:40.177Z,96560.81
2022-09-17T02:08:32.136Z,96563.47
2022-09-17T02:11:18.873Z,96559.81
2022-09-17T02:14:06.771Z,96564.31
2022-09-17T02:16:58.178Z,96562.47
2022-09-17T02:19:45.747Z,96558.34
2022-09-17T02:22:40.312Z,96549.38
2022-09-17T02:25:42.491Z,96554.69
2022-09-17T02:28:42.646Z,96556.50
2022-09-17T02:31:29.449Z,96548.75
2022-09-17T02:34:19.039Z,96547.13
2022-09-17T02:37:05.893Z,96546.28
2022-09-17T02:39:52.641Z,96541.16
2022-09-17T02:42:42.423Z,96533.41
2022-09-17T02:45:29.050Z,96542.41
2022-09-17T02:48:21.552Z,96535.41
2022-09-17T02:51:19.610Z,96537.09
2022-09-17T02:54:24.544Z,96524.78
2022-09-17T02:57:14.862Z,96525.81
2022-09-17T03:00:11.559Z,96518.66
2022-09-17T03:03:07.829Z,96517.84
2022-09-17T03:05:54.726Z,96521.53
2022-09-17T03:08:41.702Z,96513.56
2022-09-17T03:11:30.054Z,96509.06
2022-09-17T03:14:17.187Z,96514.56
2022-09-17T03:17:06.252Z,96514.56
2022-09-17T03:19:53.154Z,96510.28
2022-09-17T03:22:39.967Z,96514.97
2022-09-17T03:25:30.859Z,96511.28
2022-09-17T03:28:17.747Z,96501.47
2022-09-17T03:31:09.591Z,96502.28
2022-09-17T03:33:56.424Z,96508.44
2022-09-17T03:36:46.043Z,96504.97
2022-09-17T03:39:32.740Z,96503.13
2022-09-17T03:42:19.415Z,96502.28
2022-09-17T03:45:06.363Z,96502.28
2022-09-17T03:47:53.028Z,96501.47
2022-09-17T03:50:42.641Z,96495.16
2022-09-17T03:53:29.343Z,96496.16
2022-09-17T03:56:16.199Z,96494.31
2022-09-17T03:59:02.914Z,96493.72
2022-09-17T04:01:49.673Z,96500.03
2022-09-17T04:04:36.744Z,96492.28
2022-09-17T04:07:23.391Z,96486.31
2022-09-17T04:10:10.121Z,96489.81
2022-09-17T04:12:56.803Z,96486.31
2022-09-17T04:15:44.120Z,96488.97
2022-09-17T04:18:30.990Z,96490.66
2022-09-17T04:21:17.654Z,96493.31
2022-09-17T04:24:04.369Z,96494.28
2022-09-17T04:26:51.083Z,96488.16
2022-09-17T04:29:37.766Z,96491.47
2022-09-17T04:32:24.456Z,96484.31
2022-09-17T04:35:11.438Z,96486.97
2022-09-17T04:37:58.347Z,96480.84
2022-09-17T04:40:46.368Z,96483.50
2022-09-17T04:43:33.017Z,96484.47
2022-09-17T04:46:19.750Z,96479.16
2022-09-17T04:49:06.476Z,96484.47
2022-09-17T04:51:53.110Z,96480.03
2022-09-17T04:54:39.765Z,96486.97
2022-09-17T04:57:26.985Z,96481.44
2022-09-17T05:00:13.828Z,96480.84
2022-09-17T05:03:00.457Z,96484.31
2022-09-17T05:05:47.158Z,96488.00
2022-09-17T05:08:33.783Z,96484.47
2022-09-17T05:11:20.459Z,96484.47
2022-09-17T05:14:07.264Z,96483.66
2022-09-17T05:16:53.916Z,96480.19
2022-09-17T05:19:40.558Z,96482.03
2022-09-17T05:22:27.221Z,96489.19
2022-09-17T05:25:14.326Z,96490.22
2022-09-17T05:28:01.349Z,96492.88
2022-09-17T05:30:47.989Z,96491.22
2022-09-17T05:33:34.727Z,96486.72
2022-09-17T05:36:21.541Z,96495.53
2022-09-17T05:39:08.202Z,96494.50
2022-09-17T05:41:55.053Z,96488.38
2022-09-17T05:44:41.871Z,96505.94
2022-09-17T05:47:28.533Z,96517.38
2022-09-17T05:50:15.302Z,96525.38
2022-09-17T05:53:07.120Z,96534.97
2022-09-17T05:55:57.365Z,96549.09
2022-09-17T05:58:44.119Z,96557.06
2022-09-17T06:01:30.812Z,96565.03
2022-09-17T06:04:20.472Z,96573.81
2022-09-17T06:07:08.453Z,96583.63
2022-09-17T06:09:55.112Z,96590.56
2022-09-17T06:12:42.048Z,96592.41
2022-09-17T06:15:33.923Z,96602.22
2022-09-17T06:18:20.678Z,96616.31
2022-09-17T06:21:07.362Z,96616.31
2022-09-17T06:23:54.173Z,96623.47
2022-09-17T06:26:41.047Z,96632.28
2022-09-17T06:29:27.794Z,96627.94
2022-09-17T06:32:17.033Z,96635.09
2022-09-17T06:35:03.742Z,96631.44
2022-09-17T06:37:53.143Z,96625.13
2022-09-17T06:40:39.874Z,96626.13
2022-09-17T06:43:26.686Z,96619.16
2022-09-17T06:46:13.419Z,96615.50
2022-09-17T06:49:00.279Z,96601.19
2022-09-17T06:51:46.963Z,96602.84
2022-09-17T06:54:33.613Z,96608.16
2022-09-17T06:57:20.305Z,96604.03
2022-09-17T07:00:07.646Z,96606.25
2022-09-17T07:02:57.900Z,96597.03
2022-09-17T07:05:47.696Z,96602.19
2022-09-17T07:08:38.054Z,96612.59
2022-09-17T07:11:27.850Z,96603.59
2022-09-17T07:14:14.485Z,96614.22
2022-09-17T07:17:03.385Z,96610.59
2022-09-17T07:19:50.880Z,96613.25
2022-09-17T07:22:37.537Z,96610.19
2022-09-17T07:25:24.581Z,96611.56
2022-09-17T07:28:14.249Z,96607.09
2022-09-17T07:31:03.337Z,96610.19
2022-09-17T07:33:50.117Z,96598.53
2022-09-17T07:36:36.947Z,96609.78
2022-09-17T07:39:25.672Z,96613.06
2022-09-17T07:42:12.371Z,96612.88
2022-09-17T07:45:01.987Z,96611.66
2022-09-17T07:47:49.093Z,96616.81
2022-09-17T07:50:37.173Z,96614.97
2022-09-17T07:53:23.834Z,96618.44
2022-09-17T07:56:11.943Z,96620.69
2022-09-17T07:58:58.960Z,96617.03
2022-09-17T08:01:45.689Z,96621.31
2022-09-17T08:04:32.439Z,96627.66
2022-09-17T08:07:19.072Z,96623.16
2022-09-17T08:10:06.096Z,96627.66
2022-09-17T08:12:56.745Z,96623.97
2022-09-17T08:15:43.462Z,96626.44
2022-09-17T08:18:30.165Z,96632.56
2022-09-17T08:21:17.318Z,96628.06
2022-09-17T08:24:04.560Z,96624.41
2022-09-17T08:26:51.778Z,96636.66
2022-09-17T08:29:38.459Z,96634.00
2022-09-17T08:32:25.319Z,96624.22
2022-09-17T08:35:11.959Z,96626.88
2022-09-17T08:37:58.622Z,96617.88
2022-09-17T08:40:49.062Z,96620.53
2022-09-17T08:43:41.850Z,96630.13
2022-09-17T08:46:28.708Z,96632.78
2022-09-17T08:49:27.641Z,96636.28
2022-09-17T08:52:20.378Z,96633.44
2022-09-17T08:55:16.651Z,96639.59
2022-09-17T08:58:06.319Z,96637.56
2022-09-17T09:01:08.347Z,96638.19
2022-09-17T09:04:13.807Z,96639.00
2022-09-17T09:07:07.960Z,96644.75
2022-09-17T09:10:04.302Z,96649.25
2022-09-17T09:12:51.982Z,96643.72
2022-09-17T09:15:41.165Z,96647.22
2022-09-17T09:18:31.184Z,96648.03
2022-09-17T09:21:24.282Z,96648.84
2022-09-17T09:24:24.078Z,96639.84
2022-09-17T09:27:17.851Z,96640.66
2022-09-17T09:30:09.752Z,96650.31
2022-09-17T09:33:15.548Z,96650.31
2022-09-17T09:36:02.381Z,96655.63
2022-09-17T09:38:56.605Z,96651.13
2022-09-17T09:41:44.504Z,96653.56
2022-09-17T09:44:31.345Z,96659.53
2022-09-17T09:47:39.088Z,96657.69
2022-09-17T09:50:48.469Z,96661.16
2022-09-17T09:53:41.939Z,96661.16
2022-09-17T09:56:53.638Z,96662.78
2022-09-17T09:59:52.329Z,96661.81
2022-09-17T10:07:09.628Z,96666.91
2022-09-17T10:10:03.665Z,96668.53
2022-09-17T11:19:46.559Z,96663.59
2022-09-17T11:22:58.830Z,96663.19
2022-09-17T11:26:07.830Z,96655.88
2022-09-17T11:39:29.223Z,96658.38
2022-09-17T11:41:36.225Z,96656.72
2022-09-17T11:44:41.824Z,96658.19
2022-09-17T11:52:10.043Z,96642.81
2022-09-17T11:55:33.079Z,96647.13
2022-09-17T11:58:35.986Z,96634.44
2022-09-17T12:02:12.391Z,96638.75
2022-09-17T12:35:14.719Z,96604.50
2022-09-17T12:38:23.429Z,96597.75
2022-09-17T12:41:43.690Z,96596.53
2022-09-17T12:45:04.922Z,96591.38
2022-09-17T12:51:16.207Z,96598.16
2022-09-17T12:54:31.498Z,96592.19
2022-09-17T12:57:45.728Z,96590.59
2022-09-17T13:01:24.269Z,96585.03
2022-09-17T13:07:39.120Z,96581.94
2022-09-17T13:10:35.041Z,96564.88
2022-09-17T13:13:51.693Z,96568.53
2022-09-17T13:17:04.995Z,96550.88
2022-09-17T13:19:59.945Z,96550.63
2022-09-17T13:22:51.386Z,96542.38
2022-09-17T13:25:59.861Z,96544.00
2022-09-17T13:29:14.318Z,96537.81
2022-09-17T13:32:03.776Z,96540.88
2022-09-17T13:48:01.640Z,96586.94
2022-09-17T13:51:24.469Z,96604.59
2022-09-17T13:54:11.173Z,96577.09
2022-09-17T13:57:10.455Z,96592.06
2022-09-17T14:00:01.028Z,96585.09
2022-09-17T14:02:48.183Z,96591.88
2022-09-17T14:05:44.858Z,96580.97
2022-09-17T14:08:40.513Z,96583.19
2022-09-17T14:11:30.262Z,96583.19
2022-09-17T14:14:43.832Z,96581.13
2022-09-17T14:17:54.779Z,96592.66
2022-09-17T14:20:41.792Z,96586.47
2022-09-17T14:23:35.185Z,96596.31
2022-09-17T14:26:25.472Z,96603.31
2022-09-17T14:29:31.318Z,96598.19
2022-09-17T14:32:39.520Z,96601.06
2022-09-17T14:35:59.749Z,96587.72
2022-09-17T14:39:02.555Z,96585.25
2022-09-17T14:42:13.122Z,96581.78
2022-09-17T14:45:20.310Z,96588.16
2022-09-17T14:48:55.665Z,96599.88
2022-09-17T14:51:41.410Z,96600.88
2022-09-17T14:54:37.840Z,96600.06
2022-09-17T14:57:31.998Z,96610.97
2022-09-17T15:00:21.897Z,96623.69
2022-09-17T15:03:19.729Z,96628.22
2022-09-17T15:06:17.380Z,96623.31
2022-09-17T15:09:22.985Z,96624.53
2022-09-17T15:12:13.847Z,96616.97
2022-09-17T15:15:08.321Z,96613.09
2022-09-17T15:17:57.915Z,96606.53
2022-09-17T15:20:46.823Z,96610.22
2022-09-17T15:23:33.885Z,96611.47
2022-09-17T15:26:29.210Z,96606.34
2022-09-17T15:29:24.294Z,96605.75
2022-09-17T15:32:25.112Z,96613.97
2022-09-17T15:35:17.693Z,96612.53
2022-09-17T15:38:44.288Z,96606.38
2022-09-17T15:41:47.726Z,96608.47
2022-09-17T15:44:34.658Z,96612.34
2022-09-17T15:47:39.603Z,96605.41
2022-09-17T15:50:29.234Z,96611.75
2022-09-17T15:53:21.168Z,96621.59
2022-09-17T15:56:09.426Z,96605.81
2022-09-17T15:58:58.946Z,96610.53
2022-09-17T16:01:47.419Z,96612.38
2022-09-17T16:04:34.602Z,96610.75
2022-09-17T16:07:27.842Z,96618.13
2022-09-17T16:10:15.283Z,96623.88
2022-09-17T16:13:01.958Z,96623.06
2022-09-17T16:15:48.706Z,96627.00
2022-09-17T16:18:35.367Z,96621.03
2022-09-17T16:21:22.091Z,96625.56
2022-09-17T16:24:08.720Z,96630.25
2022-09-17T16:26:55.375Z,96628.84
2022-09-17T16:29:42.029Z,96633.34
2022-09-17T16:32:28.714Z,96632.75
2022-09-17T16:35:17.385Z,96633.97
2022-09-17T16:38:04.488Z,96644.88
2022-09-17T16:40:51.817Z,96642.38
2022-09-17T16:43:40.159Z,96640.75
2022-09-17T16:46:26.922Z,96652.66
2022-09-17T16:49:16.801Z,96648.34
2022-09-17T16:52:03.441Z,96654.91
2022-09-17T16:54:50.088Z,96655.13
2022-09-17T16:57:36.785Z,96654.50
2022-09-17T17:00:23.477Z,96657.38
2022-09-17T17:03:13.583Z,96658.63
2022-09-17T17:06:00.494Z,96654.31
2022-09-17T17:08:47.396Z,96655.34
2022-09-17T17:11:34.149Z,96652.69
2022-09-17T17:14:20.810Z,96654.72
2022-09-17T17:17:07.461Z,96648.59
2022-09-17T17:19:54.441Z,96646.13
2022-09-17T17:22:41.713Z,96640.19
2022-09-17T17:25:29.547Z,96636.88
2022-09-17T17:28:16.174Z,96639.78
2022-09-17T17:31:03.308Z,96646.13
2022-09-17T17:33:50.108Z,96652.47
2022-09-17T17:36:36.778Z,96664.16
2022-09-17T17:39:23.422Z,96663.34
2022-09-17T17:42:10.150Z,96659.06
2022-09-17T17:44:56.865Z,96662.53
2022-09-17T17:47:43.586Z,96653.91
2022-09-17T17:50:30.244Z,96656.59
2022-09-17T17:53:16.991Z,96659.47
2022-09-17T17:56:07.492Z,96658.66
2022-09-17T17:58:58.439Z,96671.97
2022-09-17T18:01:45.279Z,96688.13
2022-09-17T18:04:32.115Z,96680.34
2022-09-17T18:07:18.783Z,96689.38
2022-09-17T18:10:05.847Z,96684.22
2022-09-17T18:12:53.479Z,96696.72
2022-09-17T18:15:40.138Z,96714.78
2022-09-17T18:18:30.568Z,96714.16
2022-09-17T18:21:18.338Z,96710.03
2022-09-17T18:24:05.015Z,96718.25
2022-09-17T18:26:51.659Z,96724.81
2022-09-17T18:29:39.157Z,96727.88
2022-09-17T18:32:25.818Z,96737.09
2022-09-17T18:35:12.888Z,96738.31
2022-09-17T18:37:59.547Z,96740.34
2022-09-17T18:40:46.337Z,96727.44
2022-09-17T18:43:33.314Z,96738.31
2022-09-17T18:46:20.091Z,96740.34
2022-09-17T18:49:06.829Z,96741.56
2022-09-17T18:51:53.568Z,96734.81
2022-09-17T18:54:40.239Z,96743.81
2022-09-17T18:57:29.307Z,96737.88
2022-09-17T19:00:18.740Z,96748.91
2022-09-17T19:03:05.389Z,96754.44
2022-09-17T19:05:52.085Z,96758.97
2022-09-17T19:08:38.755Z,96761.81
2022-09-17T19:11:25.632Z,96756.69
2022-09-17T19:14:12.301Z,96758.72
2022-09-17T19:16:58.978Z,96754.63
2022-09-17T19:19:45.625Z,96754.00
2022-09-17T19:22:32.868Z,96763.03
2022-09-17T19:25:23.381Z,96752.56
2022-09-17T19:28:10.159Z,96756.25
2022-09-17T19:30:56.859Z,96761.16
2022-09-17T19:33:43.787Z,96759.31
2022-09-17T19:36:30.569Z,96751.72
2022-09-17T19:39:17.813Z,96752.13
2022-09-17T19:42:04.553Z,96756.81
2022-09-17T19:44:51.199Z,96760.69
2022-09-17T19:47:37.863Z,96754.94
2022-09-17T19:50:24.536Z,96757.00
2022-09-17T19:53:11.235Z,96757.41
2022-09-17T19:55:57.972Z,96768.25
2022-09-17T19:58:44.941Z,96763.31
2022-09-17T20:01:31.657Z,96759.59
2022-09-17T20:04:18.448Z,96766.97
2022-09-17T20:07:05.160Z,96759.56
2022-09-17T20:09:51.860Z,96758.94
2022-09-17T20:12:38.509Z,96758.53
2022-09-17T20:15:25.208Z,96755.44
2022-09-17T20:18:11.853Z,96757.66
2022-09-17T20:20:58.602Z,96753.75
2022-09-17T20:23:45.264Z,96761.91
2022-09-17T20:26:31.920Z,96754.53
2022-09-17T20:29:18.565Z,96756.75
2022-09-17T20:32:05.317Z,96760.44
2022-09-17T20:34:51.963Z,96764.31
2022-09-17T20:38:33.035Z,96771.66
2022-09-17T20:40:45.252Z,96762.25
2022-09-17T20:43:35.163Z,96766.91
2022-09-17T20:46:27.620Z,96775.28
2022-09-17T20:49:15.479Z,96770.16
2022-09-17T20:52:02.262Z,96774.03
2022-09-17T20:54:48.921Z,96767.28
2022-09-17T20:57:35.699Z,96767.66
2022-09-17T21:00:29.137Z,96770.72
2022-09-17T21:03:16.163Z,96764.75
2022-09-17T21:06:02.911Z,96768.63
2022-09-17T21:08:49.718Z,96774.31
2022-09-17T21:11:36.499Z,96766.06
2022-09-17T21:14:24.190Z,96776.25
2022-09-17T21:17:10.890Z,96774.84
2022-09-17T21:19:57.942Z,96772.34
2022-09-17T21:22:44.632Z,96770.91
2022-09-17T21:25:31.356Z,96768.66
2022-09-17T21:28:21.761Z,96775.16
2022-09-17T21:31:18.835Z,96778.84
2022-09-17T21:34:06.423Z,96773.06
2022-09-17T21:36:53.069Z,96778.56
2022-09-17T21:39:39.723Z,96783.25
2022-09-17T21:42:26.399Z,96781.81
2022-09-17T21:45:13.133Z,96783.81
2022-09-17T21:47:59.828Z,96773.78
2022-09-17T21:50:46.549Z,96777.81
2022-09-17T21:53:33.372Z,96772.88
2022-09-17T21:56:20.255Z,96782.91
2022-09-17T21:59:07.849Z,96774.28
2022-09-17T22:01:54.608Z,96773.84
2022-09-17T22:04:41.324Z,96770.56
2022-09-17T22:07:28.604Z,96774.41
2022-09-17T22:10:16.717Z,96777.44
2022-09-17T22:13:03.368Z,96783.94
2022-09-17T22:15:57.461Z,96772.25
2022-09-17T22:18:46.204Z,96775.09
2022-09-17T22:21:34.146Z,96772.81
2022-09-17T22:24:21.396Z,96775.88
2022-09-17T22:27:08.103Z,96781.34
2022-09-17T22:29:54.782Z,96779.06
2022-09-17T22:32:41.485Z,96779.25
2022-09-17T22:35:28.173Z,96779.63
2022-09-17T22:38:14.975Z,96773.69
2022-09-17T22:41:12.647Z,96774.69
2022-09-17T22:44:00.377Z,96765.09
2022-09-17T22:46:47.974Z,96774.91
2022-09-17T22:49:34.810Z,96777.72
2022-09-17T22:52:21.484Z,96776.06
2022-09-17T22:55:08.347Z,96781.59
2022-09-17T22:57:55.171Z,96777.25
2022-09-17T23:00:42.271Z,96786.25
2022-09-17T23:03:28.980Z,96786.44
2022-09-17T23:06:18.134Z,96769.69
2022-09-17T23:09:05.078Z,96783.13
2022-09-17T23:11:51.748Z,96781.50
2022-09-17T23:14:38.401Z,96786.00
2022-09-17T23:17:38.504Z,96785.34
2022-09-17T23:20:25.232Z,96789.00
2022-09-17T23:23:11.920Z,96785.53
2022-09-17T23:26:04.341Z,96790.03
2022-09-17T23:28:51.090Z,96782.88
2022-09-17T23:31:37.855Z,96791.84
2022-09-17T23:34:24.620Z,96787.53
2022-09-17T23:37:11.342Z,96787.38
2022-09-17T23:39:58.020Z,96793.66
2022-09-17T23:42:44.783Z,96792.03
2022-09-17T23:45:31.487Z,96789.38
2022-09-17T23:48:18.205Z,96798.97
2022-09-17T23:51:08.363Z,96793.06
2022-09-17T23:53:55.113Z,96800.66
2022-09-17T23:56:41.872Z,96805.97
2022-09-17T23:59:28.599Z,96796.31
